Terminal Aerodrome Forecast
Issued by NWS

Home | Current Version | Previous Version | Text Only | Print | Product List | Glossary Off
Versions: 1 2 3 4 5 6 7 8 9 10 11 12 13 14 15 16 17 18 19 20 21 22 23 24

000
FTUS43 KLOT 241725
TAFORD
TAF
KORD 241725Z 2418/2524 18010KT P6SM FEW060
     FM242100 11010KT P6SM FEW060
     FM250100 16005KT P6SM SKC
     FM251500 20008KT P6SM FEW050
     FM252200 13009KT P6SM SCT050=

USA.gov is the U.S. government's official web portal to all federal, state and local government web resources and services.